Terminal Aerodrome Forecast
Issued by NWS Austin/San Antonio, TX

Home | Current Version | Previous Version | Text Only | Print | Product List | Glossary On
Versions: 1 2 3 4 5 6 7 8 9 10 11 12 13 14 15 16 17 18 19 20 21 22 23
896
FTUS44 KEWX 281418 AAB
TAFDRT
TAF AMD
KDRT 281418Z 2814/2912 13006KT P6SM BKN015
     FM281500 13010KT P6SM SCT030
     FM281800 13012KT P6SM BKN050=

USA.gov is the U.S. government's official web portal to all federal, state and local government web resources and services.